Time;durP1;ratioP1;P1;durP2;ratioP2;P2;SDS_P1;SDS_P2;PMS_P1;PMS_P2;Temp;Humidity;BMP_temperature;BMP_pressure;BME280_temperature;BME280_humidity;BME280_pressure;Samples;Min_cycle;Max_cycle;Signal;HPM_P1;HPM_P2
2022/01/09 00:01:00;;;;;;;2.40;1.00;;;20.00;57.10;;;;;;4951313;28;87009;-85
2022/01/09 00:03:26;;;;;;;1.10;0.90;;;19.90;57.00;;;;;;4950699;28;87911;-84
2022/01/09 00:05:52;;;;;;;1.55;0.80;;;19.90;56.90;;;;;;4948657;28;88422;-83
2022/01/09 00:08:17;;;;;;;1.48;0.93;;;19.90;56.90;;;;;;4950702;28;87640;-84
2022/01/09 00:10:47;;;;;;;1.35;0.80;;;19.90;56.90;;;;;;4949418;28;89251;-84
2022/01/09 00:13:13;;;;;;;1.30;1.00;;;19.90;56.90;;;;;;4950220;28;88911;-84
2022/01/09 00:15:39;;;;;;;1.38;0.90;;;19.90;56.80;;;;;;4950014;28;88518;-82
2022/01/09 00:18:05;;;;;;;1.52;0.90;;;19.90;57.00;;;;;;4951359;28;88123;-82
2022/01/09 00:20:30;;;;;;;1.75;0.88;;;19.90;56.90;;;;;;4950865;28;87528;-81
2022/01/09 00:23:17;;;;;;;1.33;0.90;;;19.90;56.70;;;;;;4950100;28;87837;-82
2022/01/09 00:25:45;;;;;;;2.17;1.20;;;19.90;56.80;;;;;;4949280;28;87632;-83
2022/01/09 00:28:11;;;;;;;1.50;0.90;;;19.90;56.80;;;;;;4950295;28;87449;-83
2022/01/09 00:30:37;;;;;;;1.65;1.00;;;19.80;56.80;;;;;;4950195;28;87854;-83
2022/01/09 00:33:04;;;;;;;2.17;1.20;;;19.80;56.60;;;;;;4949832;28;87701;-83
2022/01/09 00:35:30;;;;;;;1.42;0.88;;;19.80;56.50;;;;;;4949618;28;87690;-83
2022/01/09 00:37:56;;;;;;;2.20;1.20;;;19.80;56.70;;;;;;4950643;28;88671;-82
2022/01/09 00:40:21;;;;;;;3.45;0.98;;;19.80;56.60;;;;;;4950603;28;87864;-86
2022/01/09 00:42:47;;;;;;;3.35;1.13;;;19.80;56.60;;;;;;4951121;28;87693;-84
2022/01/09 00:45:13;;;;;;;3.05;0.85;;;19.80;56.60;;;;;;4950814;28;87554;-81
2022/01/09 00:47:39;;;;;;;1.63;0.82;;;19.80;56.50;;;;;;4950576;28;87484;-84
2022/01/09 00:50:06;;;;;;;1.83;0.80;;;19.80;56.50;;;;;;4950280;28;88050;-81
2022/01/09 00:52:32;;;;;;;3.17;1.00;;;19.80;56.40;;;;;;4950117;28;88544;-82
2022/01/09 00:54:57;;;;;;;2.28;0.77;;;19.80;56.30;;;;;;4949949;28;87624;-85
2022/01/09 00:57:23;;;;;;;2.33;1.08;;;19.80;56.50;;;;;;4950616;28;87706;-80
2022/01/09 00:59:54;;;;;;;2.05;1.27;;;19.80;56.40;;;;;;4950701;28;87366;-84
2022/01/09 01:02:22;;;;;;;1.77;1.00;;;19.80;56.30;;;;;;4947947;28;91435;-84
2022/01/09 01:04:51;;;;;;;1.27;1.02;;;19.80;56.60;;;;;;4949688;28;88652;-83
2022/01/09 01:07:18;;;;;;;1.67;0.95;;;19.80;56.40;;;;;;4950554;28;87697;-85
2022/01/09 01:09:44;;;;;;;1.55;1.00;;;19.70;56.20;;;;;;4950884;28;87736;-85
2022/01/09 01:12:10;;;;;;;3.22;1.15;;;19.70;56.20;;;;;;4949000;28;89763;-84
2022/01/09 01:14:35;;;;;;;3.72;1.02;;;19.70;56.20;;;;;;4949156;28;87434;-84
2022/01/09 01:17:01;;;;;;;1.85;0.98;;;19.70;56.20;;;;;;4950475;28;86946;-83
2022/01/09 01:19:27;;;;;;;2.60;1.27;;;19.70;56.20;;;;;;4950299;28;86755;-84
2022/01/09 01:21:53;;;;;;;1.90;1.20;;;19.70;56.20;;;;;;4950967;28;87778;-81
2022/01/09 01:24:20;;;;;;;2.05;1.00;;;19.70;56.40;;;;;;4950336;28;87401;-84
2022/01/09 01:26:46;;;;;;;2.25;1.05;;;19.70;56.20;;;;;;4950081;28;87884;-83
2022/01/09 01:29:12;;;;;;;2.85;1.10;;;19.60;56.20;;;;;;4950117;28;87556;-81
2022/01/09 01:31:38;;;;;;;2.72;1.10;;;19.70;56.10;;;;;;4950174;28;87693;-84
2022/01/09 01:34:03;;;;;;;1.55;1.10;;;19.60;56.00;;;;;;4950183;28;86998;-81
2022/01/09 01:36:29;;;;;;;2.45;1.23;;;19.70;56.00;;;;;;4950352;28;87744;-83
2022/01/09 01:38:54;;;;;;;1.83;0.95;;;19.60;55.90;;;;;;4950410;28;87289;-83
2022/01/09 01:41:20;;;;;;;2.00;1.20;;;19.60;55.90;;;;;;4953478;28;87526;-84
2022/01/09 01:43:46;;;;;;;2.80;0.93;;;19.60;56.00;;;;;;4954319;28;87682;-82
2022/01/09 01:46:29;;;;;;;3.38;1.27;;;19.60;56.00;;;;;;4953549;28;87920;-83
2022/01/09 01:48:55;;;;;;;2.22;1.25;;;19.60;55.90;;;;;;4954295;28;87546;-85
2022/01/09 01:51:21;;;;;;;2.17;1.00;;;19.60;55.90;;;;;;4953335;28;88667;-85
2022/01/09 01:53:47;;;;;;;2.67;1.10;;;19.60;55.90;;;;;;4954292;28;88337;-82
2022/01/09 01:56:19;;;;;;;3.10;1.30;;;19.60;55.80;;;;;;4953540;28;87644;-83
2022/01/09 01:58:45;;;;;;;2.95;1.20;;;19.60;55.80;;;;;;4953421;28;87414;-84
2022/01/09 02:01:11;;;;;;;2.28;1.23;;;19.60;55.90;;;;;;4953234;28;87902;-84
2022/01/09 02:03:38;;;;;;;2.13;1.20;;;19.60;55.80;;;;;;4953566;28;88683;-83
2022/01/09 02:06:05;;;;;;;2.72;1.15;;;19.60;55.90;;;;;;4953874;28;87644;-83
2022/01/09 02:08:32;;;;;;;3.50;1.50;;;19.60;55.70;;;;;;4954736;28;87090;-83
2022/01/09 02:10:57;;;;;;;4.35;1.60;;;19.60;55.90;;;;;;4952909;28;88034;-82
2022/01/09 02:13:23;;;;;;;2.17;1.15;;;19.60;55.80;;;;;;4953488;28;88166;-82
2022/01/09 02:15:49;;;;;;;3.15;1.20;;;19.60;55.90;;;;;;4952742;28;88386;-84
2022/01/09 02:18:18;;;;;;;3.53;1.58;;;19.50;55.80;;;;;;4953391;28;87762;-83
2022/01/09 02:20:49;;;;;;;2.45;1.10;;;19.60;55.90;;;;;;4953280;28;87686;-83
2022/01/09 02:23:19;;;;;;;3.25;1.30;;;19.50;55.90;;;;;;4953769;28;86998;-84
2022/01/09 02:25:46;;;;;;;2.13;1.10;;;19.50;55.60;;;;;;4953057;28;87639;-85
2022/01/09 02:28:14;;;;;;;2.40;1.30;;;19.50;55.70;;;;;;4936169;28;89705;-84
2022/01/09 02:30:41;;;;;;;2.78;1.30;;;19.50;55.70;;;;;;4935829;28;90505;-85
2022/01/09 02:33:13;;;;;;;4.03;1.52;;;19.50;55.80;;;;;;4952235;28;86589;-84
2022/01/09 02:35:39;;;;;;;3.00;1.38;;;19.50;55.70;;;;;;4952862;28;87139;-84
2022/01/09 02:38:06;;;;;;;3.88;1.58;;;19.50;55.70;;;;;;4953841;28;87849;-82
2022/01/09 02:40:32;;;;;;;4.15;1.70;;;19.50;55.70;;;;;;4953278;28;89341;-84
2022/01/09 02:42:58;;;;;;;4.18;1.30;;;19.50;55.60;;;;;;4953015;28;88664;-81
2022/01/09 02:45:27;;;;;;;3.67;1.63;;;19.50;55.90;;;;;;4953022;28;87334;-85
2022/01/09 02:47:56;;;;;;;2.53;1.30;;;19.50;55.70;;;;;;4952819;28;88183;-83
2022/01/09 02:50:34;;;;;;;3.75;1.70;;;19.50;55.70;;;;;;4933663;28;88824;-82
2022/01/09 02:53:12;;;;;;;4.00;1.60;;;19.50;55.70;;;;;;4935728;28;89962;-86
2022/01/09 02:55:38;;;;;;;4.72;1.55;;;19.50;55.60;;;;;;4934900;28;88114;-85
2022/01/09 02:58:04;;;;;;;3.78;1.45;;;19.40;55.60;;;;;;4952762;28;86980;-83
2022/01/09 03:00:35;;;;;;;3.47;1.30;;;19.40;55.50;;;;;;4952002;28;87721;-81
2022/01/09 03:03:02;;;;;;;3.15;1.35;;;19.50;55.60;;;;;;4952959;28;90043;-82
2022/01/09 03:05:29;;;;;;;3.65;1.80;;;19.50;55.60;;;;;;4952011;28;87924;-81
2022/01/09 03:07:55;;;;;;;4.10;1.80;;;19.40;55.60;;;;;;4952212;28;87860;-83
2022/01/09 03:10:22;;;;;;;3.85;1.45;;;19.40;55.50;;;;;;4951392;28;87810;-82
2022/01/09 03:12:50;;;;;;;3.53;1.70;;;19.40;55.60;;;;;;4952752;28;87445;-83
2022/01/09 03:15:16;;;;;;;3.78;1.33;;;19.40;55.50;;;;;;4952742;28;88194;-85
2022/01/09 03:17:52;;;;;;;2.88;1.58;;;19.40;55.60;;;;;;4952437;28;87043;-82
2022/01/09 03:20:21;;;;;;;4.65;1.60;;;19.40;55.60;;;;;;4951233;28;88127;-84
2022/01/09 03:22:47;;;;;;;4.90;1.63;;;19.40;55.60;;;;;;4953010;28;88666;-84
2022/01/09 03:25:14;;;;;;;4.28;1.98;;;19.40;55.70;;;;;;4935119;28;88155;-82
2022/01/09 03:27:41;;;;;;;3.20;1.50;;;19.40;55.60;;;;;;4952882;28;87007;-84
2022/01/09 03:30:09;;;;;;;5.40;1.90;;;19.40;55.70;;;;;;4951806;28;89078;-83
2022/01/09 03:32:36;;;;;;;4.32;1.73;;;19.40;55.60;;;;;;4951889;28;88131;-83
2022/01/09 03:35:03;;;;;;;2.85;1.38;;;19.40;55.60;;;;;;4951155;28;87547;-85
2022/01/09 03:37:29;;;;;;;3.50;1.63;;;19.40;55.60;;;;;;4933913;28;89940;-85
2022/01/09 03:39:55;;;;;;;3.90;1.75;;;19.30;55.50;;;;;;4951963;28;88831;-83
2022/01/09 03:42:20;;;;;;;6.15;1.77;;;19.30;55.50;;;;;;4952113;28;87849;-82
2022/01/09 03:44:46;;;;;;;4.88;1.80;;;19.30;55.40;;;;;;4952059;28;87546;-83
2022/01/09 03:47:12;;;;;;;4.28;1.80;;;19.30;55.50;;;;;;4951850;28;86474;-82
2022/01/09 03:49:37;;;;;;;3.63;1.60;;;19.30;55.50;;;;;;4951412;28;87881;-83
2022/01/09 03:52:03;;;;;;;5.30;1.70;;;19.30;55.50;;;;;;4951811;28;87584;-82
2022/01/09 03:54:38;;;;;;;4.05;1.60;;;19.30;55.50;;;;;;4951384;28;89211;-84
2022/01/09 03:57:04;;;;;;;3.83;1.85;;;19.30;55.40;;;;;;4950834;28;87846;-81
2022/01/09 03:59:30;;;;;;;6.60;2.63;;;19.30;55.50;;;;;;4951734;28;87563;-84
2022/01/09 04:01:56;;;;;;;3.85;1.67;;;19.30;55.40;;;;;;4951473;28;88260;-83
2022/01/09 04:04:22;;;;;;;4.18;1.77;;;19.30;55.40;;;;;;4951477;28;87530;-82
2022/01/09 04:06:50;;;;;;;4.63;1.85;;;19.30;55.30;;;;;;4951337;28;87000;-83
2022/01/09 04:09:38;;;;;;;5.28;1.83;;;19.30;55.20;;;;;;4951337;28;87811;-83
2022/01/09 04:12:18;;;;;;;5.43;1.83;;;19.30;55.10;;;;;;4951812;28;87450;-82
2022/01/09 04:14:51;;;;;;;6.35;2.00;;;19.30;55.20;;;;;;4950450;28;87277;-83
2022/01/09 04:17:25;;;;;;;3.88;1.70;;;19.30;55.00;;;;;;4933872;28;88033;-82
2022/01/09 04:19:50;;;;;;;5.03;1.92;;;19.30;55.00;;;;;;4932339;28;91548;-83
2022/01/09 04:22:16;;;;;;;4.88;1.80;;;19.20;54.90;;;;;;4952232;28;88418;-84
2022/01/09 04:24:42;;;;;;;3.83;1.77;;;19.20;55.00;;;;;;4951127;28;87678;-84
2022/01/09 04:27:07;;;;;;;3.72;1.70;;;19.30;55.00;;;;;;4951138;28;87925;-82
2022/01/09 04:29:33;;;;;;;5.38;2.05;;;19.20;54.80;;;;;;4951180;28;87928;-82
2022/01/09 04:31:59;;;;;;;4.90;1.85;;;19.20;54.90;;;;;;4950319;28;88026;-84
2022/01/09 04:34:24;;;;;;;4.90;2.13;;;19.20;54.90;;;;;;4951224;28;87416;-83
2022/01/09 04:36:50;;;;;;;5.68;2.13;;;19.20;54.90;;;;;;4950433;28;87170;-82
2022/01/09 04:39:16;;;;;;;5.60;1.95;;;19.20;54.90;;;;;;4950411;28;87928;-83
2022/01/09 04:41:42;;;;;;;4.82;2.13;;;19.20;54.90;;;;;;4950366;28;87712;-82
2022/01/09 04:44:08;;;;;;;5.65;2.00;;;19.20;55.00;;;;;;4950198;28;88797;-82
2022/01/09 04:46:48;;;;;;;5.95;2.17;;;19.20;54.90;;;;;;4949730;28;87404;-84
2022/01/09 04:49:14;;;;;;;3.90;1.70;;;19.20;55.00;;;;;;4951147;28;88145;-82
2022/01/09 04:51:42;;;;;;;5.28;1.95;;;19.20;54.80;;;;;;4950744;28;87653;-83
2022/01/09 04:54:08;;;;;;;4.28;1.85;;;19.20;55.00;;;;;;4951203;28;87470;-82
2022/01/09 04:56:33;;;;;;;8.40;2.10;;;19.20;54.90;;;;;;4950880;28;87349;-82
2022/01/09 04:58:59;;;;;;;6.72;2.25;;;19.20;54.80;;;;;;4950382;28;87642;-83
2022/01/09 05:01:25;;;;;;;6.07;1.98;;;19.20;54.90;;;;;;4950085;28;87176;-82
2022/01/09 05:03:50;;;;;;;5.68;2.05;;;19.20;54.90;;;;;;4950164;28;87243;-83
2022/01/09 05:06:16;;;;;;;5.50;2.00;;;19.10;54.80;;;;;;4949212;28;89381;-86
2022/01/09 05:08:41;;;;;;;5.65;2.05;;;19.10;54.80;;;;;;4948978;28;91170;-88
2022/01/09 05:11:07;;;;;;;4.55;2.22;;;19.10;54.80;;;;;;4950864;28;88279;-82
2022/01/09 05:13:35;;;;;;;4.50;2.10;;;19.10;54.70;;;;;;4951366;28;86938;-88
2022/01/09 05:16:00;;;;;;;4.35;2.10;;;19.10;54.60;;;;;;4950055;28;88409;-85
2022/01/09 05:18:26;;;;;;;4.95;1.77;;;19.20;54.80;;;;;;4951753;28;87866;-85
2022/01/09 05:20:52;;;;;;;5.15;1.83;;;19.10;54.70;;;;;;4951293;28;87665;-85
2022/01/09 05:23:17;;;;;;;5.07;2.10;;;19.10;54.60;;;;;;4950468;28;87501;-85
2022/01/09 05:25:43;;;;;;;6.55;2.35;;;19.10;54.60;;;;;;4950702;28;86853;-84
2022/01/09 05:28:09;;;;;;;6.38;2.33;;;19.10;55.30;;;;;;4949192;28;88008;-84
2022/01/09 05:30:34;;;;;;;5.03;2.28;;;19.10;54.60;;;;;;4950080;28;87783;-85
2022/01/09 05:33:00;;;;;;;4.53;1.80;;;19.10;54.40;;;;;;4951053;28;88419;-85
2022/01/09 05:35:26;;;;;;;6.05;2.08;;;19.10;54.70;;;;;;4950188;28;87916;-84
2022/01/09 05:37:52;;;;;;;4.15;1.52;;;19.10;54.60;;;;;;4949058;28;91487;-85
2022/01/09 05:40:21;;;;;;;4.90;2.00;;;19.10;54.70;;;;;;4949580;28;87815;-83
2022/01/09 05:42:55;;;;;;;4.28;1.98;;;19.10;54.50;;;;;;4950638;28;87440;-84
2022/01/09 05:45:21;;;;;;;5.65;2.20;;;19.10;54.50;;;;;;4950142;28;88222;-84
2022/01/09 05:47:46;;;;;;;4.90;1.90;;;19.10;54.50;;;;;;4950887;28;87528;-85
2022/01/09 05:50:15;;;;;;;6.15;2.35;;;19.10;54.60;;;;;;4951236;28;87775;-85
2022/01/09 05:52:41;;;;;;;5.30;1.90;;;19.00;54.70;;;;;;4951157;28;87298;-83
2022/01/09 05:55:07;;;;;;;4.75;1.90;;;19.00;54.40;;;;;;4948851;28;87700;-85
2022/01/09 05:57:33;;;;;;;5.68;2.00;;;19.00;54.40;;;;;;4949674;28;88919;-84
2022/01/09 05:59:58;;;;;;;3.92;2.15;;;19.00;54.40;;;;;;4950175;28;88143;-85
2022/01/09 06:02:24;;;;;;;5.30;1.90;;;19.00;54.40;;;;;;4950321;28;87538;-85
2022/01/09 06:04:50;;;;;;;6.15;2.28;;;19.00;54.40;;;;;;4949749;28;87547;-83
2022/01/09 06:07:15;;;;;;;4.20;1.80;;;19.00;54.40;;;;;;4949235;28;87559;-83
2022/01/09 06:09:41;;;;;;;5.20;2.30;;;19.00;54.50;;;;;;4950061;28;87495;-84
2022/01/09 06:12:07;;;;;;;4.93;1.92;;;19.00;54.30;;;;;;4950131;28;86842;-84
2022/01/09 06:14:33;;;;;;;6.97;2.50;;;19.00;54.40;;;;;;4950759;28;87633;-84
2022/01/09 06:16:59;;;;;;;4.05;1.90;;;19.00;54.40;;;;;;4950572;28;87983;-85
2022/01/09 06:19:24;;;;;;;5.80;2.30;;;19.00;54.40;;;;;;4932537;28;90218;-84
2022/01/09 06:21:58;;;;;;;3.50;1.67;;;19.00;54.40;;;;;;4948606;28;88771;-84
2022/01/09 06:24:23;;;;;;;4.75;1.75;;;19.00;55.00;;;;;;4949917;28;88355;-84
2022/01/09 06:26:49;;;;;;;4.07;1.85;;;19.00;54.40;;;;;;4952184;28;88302;-86
2022/01/09 06:29:14;;;;;;;3.72;1.95;;;19.00;54.40;;;;;;4953867;28;87263;-85
2022/01/09 06:31:40;;;;;;;3.78;1.80;;;19.00;54.40;;;;;;4953621;28;87263;-81
2022/01/09 06:34:06;;;;;;;5.25;2.35;;;19.00;54.40;;;;;;4952825;28;87159;-84
2022/01/09 06:36:32;;;;;;;5.70;2.13;;;18.90;54.30;;;;;;4952083;28;88051;-83
2022/01/09 06:38:57;;;;;;;4.40;1.83;;;18.90;54.40;;;;;;4953929;28;87791;-86
2022/01/09 06:41:23;;;;;;;5.65;2.38;;;19.00;54.40;;;;;;4953605;28;87220;-84
2022/01/09 06:43:48;;;;;;;4.25;1.90;;;18.90;54.40;;;;;;4952957;28;87917;-84
2022/01/09 06:46:14;;;;;;;4.60;2.00;;;18.90;54.40;;;;;;4934801;28;90713;-85
2022/01/09 06:48:41;;;;;;;6.07;2.00;;;18.90;54.40;;;;;;4951531;28;90100;-83
2022/01/09 06:51:07;;;;;;;5.05;1.95;;;18.90;54.40;;;;;;4953293;28;87905;-86
2022/01/09 06:53:32;;;;;;;5.38;2.00;;;18.90;54.30;;;;;;4952240;28;86948;-83
2022/01/09 06:55:58;;;;;;;3.58;1.65;;;18.90;54.20;;;;;;4951114;28;87496;-83
2022/01/09 06:58:24;;;;;;;5.03;2.28;;;18.90;54.40;;;;;;4952929;28;88233;-85
2022/01/09 07:00:50;;;;;;;5.13;2.08;;;18.90;54.20;;;;;;4952085;28;86930;-84
2022/01/09 07:03:15;;;;;;;5.35;2.30;;;18.90;54.30;;;;;;4934365;28;89515;-83
2022/01/09 07:05:41;;;;;;;4.47;2.03;;;18.90;54.30;;;;;;4950970;28;88199;-84
2022/01/09 07:08:07;;;;;;;5.75;2.20;;;18.90;54.20;;;;;;4952443;28;88338;-83
2022/01/09 07:10:32;;;;;;;4.38;1.70;;;18.90;54.30;;;;;;4952359;28;87808;-84
2022/01/09 07:12:58;;;;;;;4.53;1.75;;;18.90;54.20;;;;;;4934617;28;89759;-84
2022/01/09 07:15:32;;;;;;;5.03;2.13;;;18.90;54.00;;;;;;4951564;28;87671;-83
2022/01/09 07:17:58;;;;;;;4.72;2.05;;;18.90;54.00;;;;;;4951791;28;87388;-84
2022/01/09 07:20:24;;;;;;;6.03;2.22;;;18.90;54.10;;;;;;4952618;28;88011;-82
2022/01/09 07:22:49;;;;;;;7.05;1.98;;;18.90;54.00;;;;;;4952313;28;87231;-81
2022/01/09 07:25:15;;;;;;;6.35;2.30;;;18.90;54.00;;;;;;4951154;28;90637;-84
2022/01/09 07:27:40;;;;;;;5.60;2.28;;;19.00;54.00;;;;;;4952766;28;88882;-85
2022/01/09 07:30:07;;;;;;;13.13;1.92;;;19.00;54.20;;;;;;4953244;28;87350;-83
2022/01/09 07:32:36;;;;;;;17.58;2.15;;;19.10;54.10;;;;;;4950994;28;87229;-85
2022/01/09 07:35:02;;;;;;;6.15;1.73;;;19.20;53.90;;;;;;4949188;28;89142;-85
2022/01/09 07:37:30;;;;;;;7.18;1.88;;;19.30;53.60;;;;;;4948754;28;88636;-84
2022/01/09 07:39:59;;;;;;;5.60;1.95;;;19.30;53.80;;;;;;4949990;28;87237;-82
2022/01/09 07:42:26;;;;;;;7.38;2.35;;;19.40;54.10;;;;;;4950354;28;87324;-82
2022/01/09 07:44:51;;;;;;;8.75;1.90;;;19.40;53.70;;;;;;4951335;28;87377;-83
2022/01/09 07:47:17;;;;;;;6.28;1.90;;;19.50;54.10;;;;;;4950735;28;87684;-81
2022/01/09 07:49:43;;;;;;;5.55;1.92;;;19.50;54.50;;;;;;4950444;28;87826;-86
2022/01/09 07:52:08;;;;;;;6.25;2.33;;;19.50;54.60;;;;;;4952222;28;86745;-83
2022/01/09 07:54:52;;;;;;;5.45;2.08;;;19.60;54.80;;;;;;4949954;28;87618;-85
2022/01/09 07:57:18;;;;;;;6.13;2.40;;;19.50;54.80;;;;;;4950607;28;88693;-82
2022/01/09 07:59:47;;;;;;;8.82;1.92;;;19.60;55.10;;;;;;4952445;28;88744;-82
2022/01/09 08:02:12;;;;;;;8.80;2.73;;;19.60;55.00;;;;;;4952009;28;87434;-81
2022/01/09 08:04:38;;;;;;;5.93;2.33;;;19.70;55.30;;;;;;4951072;28;88086;-81
2022/01/09 08:07:04;;;;;;;6.20;2.47;;;19.70;55.10;;;;;;4950825;28;87851;-81
2022/01/09 08:09:30;;;;;;;5.25;1.77;;;19.70;55.20;;;;;;4950180;28;88059;-81
2022/01/09 08:11:55;;;;;;;6.07;2.20;;;19.70;55.60;;;;;;4950584;28;88113;-80
2022/01/09 08:14:21;;;;;;;9.18;2.30;;;19.80;55.00;;;;;;4932287;28;88823;-81
2022/01/09 08:16:47;;;;;;;6.78;2.00;;;19.70;55.40;;;;;;4947278;28;87531;-82
2022/01/09 08:19:13;;;;;;;5.72;1.90;;;19.80;55.10;;;;;;4932799;28;87455;-82
2022/01/09 08:21:38;;;;;;;5.55;1.90;;;19.80;55.20;;;;;;4951336;28;87978;-81
2022/01/09 08:24:04;;;;;;;7.40;1.95;;;19.80;55.50;;;;;;4953627;28;88776;-81
2022/01/09 08:26:30;;;;;;;6.63;2.10;;;19.70;55.70;;;;;;4950750;28;88238;-83
2022/01/09 08:28:56;;;;;;;16.48;3.20;;;19.70;55.80;;;;;;4951902;28;87477;-84
2022/01/09 08:31:39;;;;;;;26.98;5.47;;;19.80;55.70;;;;;;4950264;28;87695;-82
2022/01/09 08:34:05;;;;;;;50.08;8.75;;;19.70;55.20;;;;;;4950078;28;87548;-82
2022/01/09 08:36:32;;;;;;;40.78;8.50;;;19.70;55.00;;;;;;4946132;28;87997;-81
2022/01/09 08:38:58;;;;;;;21.70;5.10;;;19.70;55.10;;;;;;4908261;28;87317;-82
2022/01/09 08:41:23;;;;;;;20.30;4.57;;;19.70;55.60;;;;;;4950915;28;87027;-81
2022/01/09 08:43:49;;;;;;;15.38;3.58;;;19.70;55.90;;;;;;4950267;28;88339;-81
2022/01/09 08:46:15;;;;;;;19.92;4.07;;;19.80;56.30;;;;;;4950474;28;87894;-81
2022/01/09 08:48:41;;;;;;;16.58;4.32;;;19.70;56.40;;;;;;4932265;28;88098;-80
2022/01/09 08:51:07;;;;;;;16.17;4.32;;;19.70;56.50;;;;;;4950304;28;87051;-81
2022/01/09 08:53:35;;;;;;;13.70;2.88;;;19.80;56.60;;;;;;4949486;28;88408;-81
2022/01/09 08:56:05;;;;;;;28.30;5.82;;;19.80;56.90;;;;;;4930953;28;90637;-80
2022/01/09 08:58:31;;;;;;;20.88;5.10;;;19.80;56.60;;;;;;4950591;28;87776;-81
2022/01/09 09:00:57;;;;;;;20.83;5.50;;;19.80;56.50;;;;;;4950893;28;87923;-82
2022/01/09 09:03:24;;;;;;;46.08;6.97;;;19.80;57.00;;;;;;4950852;28;87419;-81
2022/01/09 09:05:59;;;;;;;21.02;5.18;;;19.90;55.70;;;;;;4951091;28;87241;-82
2022/01/09 09:08:25;;;;;;;29.42;6.28;;;19.90;57.00;;;;;;4951609;28;87721;-82
2022/01/09 09:10:50;;;;;;;27.88;6.43;;;19.90;55.80;;;;;;4950917;28;87491;-81
2022/01/09 09:13:16;;;;;;;30.27;6.70;;;19.90;56.20;;;;;;4949888;28;89102;-82
2022/01/09 09:15:41;;;;;;;26.42;6.40;;;19.90;55.80;;;;;;4951020;28;88234;-82
2022/01/09 09:18:07;;;;;;;23.42;5.18;;;20.00;55.50;;;;;;4951042;28;86963;-81
2022/01/09 09:20:33;;;;;;;27.23;7.55;;;19.90;55.40;;;;;;4947549;28;87727;-78
2022/01/09 09:22:59;;;;;;;34.28;8.90;;;20.00;56.70;;;;;;4949756;28;87596;-82
2022/01/09 09:25:25;;;;;;;32.58;7.72;;;20.00;54.40;;;;;;4949308;28;87681;-81
2022/01/09 09:27:50;;;;;;;36.40;8.35;;;19.90;53.50;;;;;;4949464;28;87766;-81
2022/01/09 09:30:16;;;;;;;34.08;7.55;;;19.90;53.80;;;;;;4949296;28;86908;-83
2022/01/09 09:32:43;;;;;;;26.40;7.10;;;20.00;55.00;;;;;;4947422;28;90810;-82
2022/01/09 09:35:09;;;;;;;24.70;6.28;;;20.00;55.50;;;;;;4947881;28;87442;-82
2022/01/09 09:37:35;;;;;;;19.92;6.28;;;20.00;56.20;;;;;;4947962;28;88858;-82
2022/01/09 09:40:00;;;;;;;24.98;6.88;;;20.00;57.20;;;;;;4947088;28;87413;-81
2022/01/09 09:42:26;;;;;;;24.73;6.57;;;20.00;55.70;;;;;;4930518;28;89598;-81
2022/01/09 09:44:52;;;;;;;22.20;6.30;;;20.00;55.90;;;;;;4949133;28;88161;-82
2022/01/09 09:47:19;;;;;;;24.05;5.80;;;20.00;56.80;;;;;;4949030;28;87624;-82
2022/01/09 09:49:56;;;;;;;22.17;6.30;;;20.00;57.20;;;;;;4949383;28;87471;-82
2022/01/09 09:52:22;;;;;;;21.77;5.47;;;20.00;55.80;;;;;;4930567;28;90262;-82
2022/01/09 09:54:50;;;;;;;24.13;6.38;;;20.00;55.60;;;;;;4947869;28;87530;-83
2022/01/09 09:57:16;;;;;;;22.58;5.82;;;20.00;55.40;;;;;;4947911;28;87967;-83
2022/01/09 09:59:42;;;;;;;21.88;5.53;;;20.00;55.30;;;;;;4929799;28;89770;-83
2022/01/09 10:02:18;;;;;;;22.65;6.20;;;20.00;56.30;;;;;;4949507;28;88716;-81
2022/01/09 10:05:00;;;;;;;22.65;6.35;;;20.10;56.30;;;;;;4950940;28;88706;-82
2022/01/09 10:07:27;;;;;;;17.48;5.70;;;20.10;56.50;;;;;;4951958;28;87402;-82
2022/01/09 10:10:15;;;;;;;21.25;4.53;;;20.10;56.60;;;;;;4952176;28;87421;-81
2022/01/09 10:12:42;;;;;;;24.15;5.35;;;20.10;57.20;;;;;;4952598;28;87821;-82
2022/01/09 10:15:14;;;;;;;21.17;6.22;;;20.20;57.30;;;;;;4951284;28;87655;-83
2022/01/09 10:17:42;;;;;;;21.83;5.32;;;20.10;56.60;;;;;;4953368;28;87892;-82
2022/01/09 10:20:20;;;;;;;19.70;4.93;;;20.10;56.30;;;;;;4952608;28;87108;-84
2022/01/09 10:22:49;;;;;;;17.35;4.82;;;20.10;57.30;;;;;;4951366;28;90258;-83
2022/01/09 10:25:37;;;;;;;16.80;4.80;;;20.10;57.50;;;;;;4952207;28;88099;-83
2022/01/09 10:28:14;;;;;;;20.35;5.22;;;20.10;56.80;;;;;;4952533;28;88722;-84
2022/01/09 10:30:48;;;;;;;19.85;5.40;;;20.10;56.80;;;;;;4953204;28;87430;-85
2022/01/09 10:33:21;;;;;;;17.73;5.15;;;20.10;57.00;;;;;;4958438;28;88015;-83
2022/01/09 10:35:49;;;;;;;20.83;4.93;;;20.10;56.90;;;;;;4952528;28;87945;-82
2022/01/09 10:38:22;;;;;;;16.38;4.45;;;20.10;56.60;;;;;;4951124;28;86912;-83
2022/01/09 10:41:04;;;;;;;17.65;4.78;;;20.20;57.00;;;;;;4952423;28;87381;-85
2022/01/09 10:43:36;;;;;;;19.85;5.13;;;20.20;57.30;;;;;;4951249;28;86968;-79
2022/01/09 10:46:02;;;;;;;20.35;5.05;;;20.20;57.20;;;;;;4951339;28;86680;-81
2022/01/09 10:48:34;;;;;;;24.35;4.80;;;20.20;57.30;;;;;;4951959;28;87325;-82
2022/01/09 10:51:02;;;;;;;12.85;4.85;;;20.20;57.60;;;;;;4951101;28;87861;-84
2022/01/09 10:53:29;;;;;;;16.58;4.28;;;20.20;57.80;;;;;;4951045;28;88641;-82
2022/01/09 10:56:14;;;;;;;15.20;4.10;;;20.20;58.10;;;;;;4954393;28;88181;-83
2022/01/09 10:58:58;;;;;;;15.95;4.72;;;20.20;58.30;;;;;;4950791;28;88548;-82
2022/01/09 11:01:26;;;;;;;17.40;3.85;;;20.20;58.50;;;;;;4950762;28;87291;-82
2022/01/09 11:03:53;;;;;;;17.52;5.10;;;20.20;57.30;;;;;;4951280;28;88924;-83
2022/01/09 11:06:20;;;;;;;19.27;4.78;;;20.20;58.80;;;;;;4950653;28;87484;-84
2022/01/09 11:08:48;;;;;;;21.83;5.70;;;20.20;59.30;;;;;;4952986;28;87471;-83
2022/01/09 11:11:27;;;;;;;22.75;4.82;;;20.30;60.10;;;;;;4952459;28;86525;-86
2022/01/09 11:13:54;;;;;;;15.68;4.65;;;20.30;60.50;;;;;;4951617;28;88082;-83
2022/01/09 11:16:42;;;;;;;13.82;4.53;;;20.30;61.00;;;;;;4952789;28;87304;-85
2022/01/09 11:19:15;;;;;;;16.27;4.78;;;20.30;61.10;;;;;;4951552;28;88732;-83
2022/01/09 11:21:55;;;;;;;20.33;4.43;;;20.30;61.30;;;;;;4935496;28;87674;-81
2022/01/09 11:24:56;;;;;;;17.63;4.93;;;20.40;61.30;;;;;;4951361;28;87822;-83
2022/01/09 11:27:44;;;;;;;24.42;4.70;;;20.40;61.20;;;;;;4933769;28;90612;-84
2022/01/09 11:30:14;;;;;;;17.75;4.88;;;20.40;61.10;;;;;;4951060;28;87749;-84
2022/01/09 11:32:48;;;;;;;20.50;4.57;;;20.40;61.30;;;;;;4949955;28;87919;-87
2022/01/09 11:35:32;;;;;;;23.60;4.80;;;20.50;61.10;;;;;;4933728;28;88349;-82
2022/01/09 11:38:12;;;;;;;21.77;4.60;;;20.40;60.60;;;;;;4952004;28;87748;-85
2022/01/09 11:40:40;;;;;;;16.77;4.00;;;20.40;60.50;;;;;;4953224;28;87328;-88
2022/01/09 11:43:15;;;;;;;17.08;4.05;;;20.40;60.60;;;;;;4952406;28;87033;-84
2022/01/09 11:45:55;;;;;;;22.98;4.40;;;20.40;60.90;;;;;;4950047;28;88436;-85
2022/01/09 11:48:58;;;;;;;19.42;4.20;;;20.40;59.90;;;;;;4950902;28;89299;-83
2022/01/09 11:51:25;;;;;;;17.52;4.47;;;20.40;59.90;;;;;;4950665;28;87815;-84
2022/01/09 11:54:15;;;;;;;22.67;4.45;;;20.40;59.80;;;;;;4951770;28;86954;-83
2022/01/09 11:57:05;;;;;;;17.25;4.35;;;20.40;57.60;;;;;;4951095;28;88564;-82
2022/01/09 11:59:37;;;;;;;9.60;3.40;;;20.40;58.40;;;;;;4951407;28;87325;-83
2022/01/09 12:02:04;;;;;;;14.63;3.92;;;20.30;59.20;;;;;;4952552;28;88035;-81
2022/01/09 12:04:33;;;;;;;13.90;4.20;;;20.30;59.60;;;;;;4952602;28;87139;-83
2022/01/09 12:07:07;;;;;;;15.87;3.90;;;20.30;59.90;;;;;;4950918;28;87682;-81
2022/01/09 12:09:35;;;;;;;14.35;4.00;;;20.40;60.00;;;;;;4952622;28;87605;-82
2022/01/09 12:12:10;;;;;;;17.00;3.90;;;20.40;59.90;;;;;;4951916;28;88018;-82
2022/01/09 12:14:42;;;;;;;14.20;3.72;;;20.40;59.90;;;;;;4951111;28;87370;-80
2022/01/09 12:17:28;;;;;;;13.02;3.75;;;20.40;59.70;;;;;;4951353;28;87715;-83
2022/01/09 12:20:28;;;;;;;18.35;4.25;;;20.40;59.50;;;;;;4950870;28;87734;-85
2022/01/09 12:23:06;;;;;;;;;;;20.40;59.70;;;;;;4924285;28;87347;-82
2022/01/09 12:25:35;;;;;;;15.63;4.67;;;20.40;60.00;;;;;;4952413;28;87671;-83
2022/01/09 12:28:23;;;;;;;10.70;3.95;;;20.30;59.20;;;;;;4951835;28;87935;-83
2022/01/09 12:30:55;;;;;;;14.32;4.07;;;20.40;59.50;;;;;;4951885;28;87693;-83
2022/01/09 12:33:27;;;;;;;12.27;3.78;;;20.30;59.50;;;;;;4951079;28;87716;-80
2022/01/09 12:36:03;;;;;;;12.68;4.07;;;20.30;59.40;;;;;;4951470;28;87905;-82
2022/01/09 12:38:31;;;;;;;13.40;3.63;;;20.30;59.40;;;;;;4932438;28;88740;-80
2022/01/09 12:41:01;;;;;;;14.10;3.90;;;20.30;59.30;;;;;;4951004;28;88545;-82
2022/01/09 12:43:28;;;;;;;11.30;4.05;;;20.30;59.40;;;;;;4951110;28;87591;-82
2022/01/09 12:45:54;;;;;;;12.30;3.88;;;20.30;59.50;;;;;;4951380;28;87824;-81
2022/01/09 12:48:28;;;;;;;11.95;3.90;;;20.30;59.40;;;;;;4933913;28;90873;-81
2022/01/09 12:50:56;;;;;;;13.23;3.58;;;20.30;59.40;;;;;;4950374;28;87507;-81